• Join FlightAware (Why Join?)
  • Login
  • US Flag 
12:18AM EDT


 

Airport Tracker/Info


-or-


 

Live Flight TrackerFlight Track Log ✈ AWE3417 ✈ 19-Apr-2013 ✈ KMHT - KDCA

Flight Track Log - Related Links

Times and Time Zones

All times are in EDT time to prevent confusion due to time zone crossing. See the AWE3417 flight status page for this flight to view local times or setup timezone preferences in your user account.

Time Position Orientation Groundspeed Altitude Reporting Facility
EDT Latitude Longitude Course Direction KTS MPH feet Rate Location/Type
05:14PM 42.9167 -71.4167 202° Southwest 141 162 1,300  Level KA90
05:14PM 42.9044 -71.4253 207° Southwest 141 162 1,800 2,040 Climbing Boston Center
05:15PM 42.8839 -71.4739 240° Southwest 163 188 4,000 2,400 Climbing Boston Center
05:16PM 42.9422 -71.4758 359° North 119 137 6,700 2,580 Climbing Boston Center
05:17PM 43.0745 -70.9701 132° Southeast  Level FlightAware Approximate
05:17PM 42.9769 -71.3758 65° Northeast 210 242 9,200  Level Boston Center
05:18PM 43.0010 -70.8843 144° Southeast  Level FlightAware Approximate
05:18PM 43.0153 -71.2561 66° East 314 361 11,200  Level Boston Center
05:19PM 42.9137 -70.9054 202° Southwest  Level FlightAware Approximate
05:19PM 43.0617 -71.1103 66° East 365 420 13,900  Level Boston Center
05:20PM 43.0642 -70.9850 88° East 357 411 16,100 2,340 Climbing Boston Center
05:21PM 42.9881 -70.8961 139° Southeast 332 382 18,700 2,160 Climbing Boston Center
05:22PM 42.9175 -70.9092 188° South 246 283 20,400 1,920 Climbing Boston Center
05:23PM 42.8325 -70.9567 202° Southwest 273 314 22,500 1,800 Climbing Boston Center
05:24PM 42.7478 -71.0008 201° Southwest 298 343 24,100 1,500 Climbing Boston Center
05:25PM 42.6544 -71.0456 199° South 334 384 25,600 1,320 Climbing Boston Center
05:26PM 42.5611 -71.0928 200° South 358 412 26,900 1,200 Climbing Boston Center
05:27PM 42.4617 -71.1400 199° South 375 432 28,100 1,200 Climbing Boston Center
05:28PM 42.3942 -71.2397 228° Southwest 364 419 29,400 960 Climbing Boston Center
05:29PM 42.3536 -71.3753 248° West 364 419 30,000 300 Climbing Boston Center
05:30PM 42.3114 -71.5250 249° West 378 435 30,000  Level Boston Center
05:31PM 42.2497 -71.6436 235° Southwest 386 444 30,000  Level Boston Center
05:32PM 42.1919 -71.7592 236° Southwest 391 450 30,000  Level Boston Center
05:33PM 42.1364 -71.8744 237° Southwest 386 444 30,000  Level Boston Center
05:34PM 42.0786 -71.9925 237° Southwest 381 438 30,000  Level Boston Center
05:35PM 42.0206 -72.1131 237° Southwest 386 444 30,000  Level Boston Center
05:36PM 41.9625 -72.2306 236° Southwest 386 444 30,000  Level Boston Center
05:37PM 41.9044 -72.3481 236° Southwest 386 444 30,000  Level Boston Center
05:38PM 41.8461 -72.4653 236° Southwest 386 444 30,000  Level Boston Center
05:39PM 41.7875 -72.5792 235° Southwest 386 444 30,000  Level Boston Center
05:40PM 41.7311 -72.6961 237° Southwest 386 444 30,000  Level Boston Center
05:41PM 41.6808 -72.7958 236° Southwest 381 438 30,000  Level Boston Center
05:42PM 41.6219 -72.9122 236° Southwest 381 438 30,000  Level Boston Center
05:43PM 41.5758 -73.0033 236° Southwest 381 438 30,000  Level Boston Center
05:44PM 41.5042 -73.1525 237° Southwest 375 432 30,000  Level Boston Center
05:45PM 41.4469 -73.2625 235° Southwest 375 432 30,000  Level Boston Center
05:46PM 41.3900 -73.3781 237° Southwest 375 432 30,000  Level Boston Center
05:48PM 41.2825 -73.5764 234° Southwest 372 428 30,000  Level New York Center
05:49PM 41.2214 -73.6842 233° Southwest 372 428 30,000  Level New York Center
05:50PM 41.1583 -73.7914 232° Southwest 377 434 30,000  Level New York Center
05:51PM 41.0953 -73.8961 231° Southwest 377 434 30,000  Level New York Center
05:52PM 41.0342 -74.0006 232° Southwest 377 434 30,000  Level New York Center
05:53PM 40.9708 -74.1075 232° Southwest 377 434 30,000 -360 Level New York Center
05:54PM 40.9119 -74.1978 229° Southwest 377 434 29,300 -840 Descending New York Center
05:55PM 40.8506 -74.3017 232° Southwest 365 420 28,400 -660 Descending New York Center
05:56PM 40.7892 -74.4028 231° Southwest 360 414 28,000 -240 Descending New York Center
05:57PM 40.7297 -74.5008 231° Southwest 360 414 28,000  Level New York Center
05:58PM 40.6703 -74.5989 231° Southwest 360 414 28,000  Level New York Center
05:59PM 40.6108 -74.7022 233° Southwest 360 414 28,000 -480 Level New York Center
06:00PM 40.5450 -74.7967 227° Southwest 360 414 27,100 -1,440 Descending New York Center
06:01PM 40.4814 -74.8883 228° Southwest 353 406 25,200 -1,800 Descending New York Center
06:02PM 40.4200 -74.9775 228° Southwest 347 399 23,600 -1,680 Descending New York Center
06:03PM 40.3586 -75.0636 227° Southwest 337 388 21,900 -1,740 Descending New York Center
06:04PM 40.3014 -75.1417 226° Southwest 323 372 20,100 -960 Descending New York Center
06:05PM 40.2464 -75.2197 227° Southwest 308 354 20,000 -600 Descending New York Center
06:06PM 40.1803 -75.3106 226° Southwest 308 354 19,000 -1,140 Descending New York Center
06:07PM 40.1278 -75.3778 224° Southwest 308 354 17,800 -1,140 Descending New York Center
06:08PM 40.0658 -75.4658 227° Southwest 308 354 16,800 -900 Descending New York Center
06:09PM 40.0172 -75.5358 228° Southwest 308 354 16,100 -600 Descending New York Center
06:10PM 39.9578 -75.6158 226° Southwest 296 341 15,700 -660 Descending New York Center
06:11PM 39.9111 -75.6856 229° Southwest 291 335 14,800 -840 Descending New York Center
06:12PM 39.8633 -75.7769 236° Southwest 286 329 14,100 -360 Descending New York Center
06:13PM 39.8269 -75.8472 236° Southwest 275 316 14,100  Level New York Center
06:14PM 39.7839 -75.9281 235° Southwest 253 291 14,100  Level New York Center
06:15PM 39.7475 -75.9983 236° Southwest 253 291 14,100  Level New York Center
06:16PM 39.7044 -76.0758 234° Southwest 264 304 14,100  Level New York Center
06:17PM 39.6608 -76.1617 237° Southwest 269 310 14,100 -60 Level New York Center
06:18PM 39.6219 -76.2394 237° Southwest 269 310 14,000 -240 Descending New York Center
06:19PM 39.5833 -76.3000 230° Southwest 263 303 13,700 -900 Descending Potomac TRACON
06:20PM 39.5333 -76.3500 218° Southwest 249 287 12,500 -840 Descending Potomac TRACON
06:21PM 39.4667 -76.4000 210° Southwest 252 290 12,000 -240 Descending Potomac TRACON
06:22PM 39.4000 -76.4500 210° Southwest 252 290 12,000 -420 Level Potomac TRACON
06:23PM 39.3500 -76.5000 218° Southwest 248 285 11,300 -900 Descending Potomac TRACON
06:24PM 39.3000 -76.5500 218° Southwest 237 273 10,300 -660 Descending Potomac TRACON
06:25PM 39.2500 -76.6000 218° Southwest 236 272 10,000 -180 Descending Potomac TRACON
06:26PM 39.2000 -76.6500 218° Southwest 233 268 10,000  Level Potomac TRACON
06:27PM 39.1500 -76.7000 218° Southwest 232 267 10,000  Level Potomac TRACON
06:28PM 39.1000 -76.7500 218° Southwest 233 268 10,000 -420 Level Potomac TRACON
06:29PM 39.0667 -76.8167 237° Southwest 240 276 9,200 -1,260 Descending Potomac TRACON
06:30PM 39.0500 -76.9000 256° West 234 269 7,500 -1,620 Descending Potomac TRACON
06:31PM 39.0500 -76.9833 270° West 231 266 6,000 -780 Descending Potomac TRACON
06:32PM 39.0333 -77.0667 256° West 235 270 6,000  Level Potomac TRACON
06:33PM 39.0500 -77.1500 284° West 244 281 6,000 -660 Level Potomac TRACON
06:34PM 39.0500 -77.2333 270° West 227 261 4,700 -1,200 Descending Potomac TRACON
06:35PM 39.0167 -77.2333 180° South 191 220 3,700 -900 Descending Potomac TRACON
06:35PM 38.9833 -77.1833 131° Southeast 160 184 3,000 -720 Descending Potomac TRACON
06:36PM 38.9500 -77.1500 142° Southeast 158 182 2,400 -600 Descending Potomac TRACON